createdAt,value
2017-06-30T00:00:27.168Z,0
2017-06-30T00:02:28.626Z,0
2017-06-30T00:04:30.019Z,0
2017-06-30T00:06:31.445Z,0
2017-06-30T00:08:32.876Z,0
2017-06-30T00:10:34.310Z,0
2017-06-30T00:12:35.738Z,0
2017-06-30T00:14:37.165Z,0
2017-06-30T00:16:38.593Z,0
2017-06-30T00:18:40.020Z,0
2017-06-30T00:20:41.443Z,0
2017-06-30T00:22:42.936Z,0
2017-06-30T00:24:44.363Z,0
2017-06-30T00:26:45.797Z,0
2017-06-30T00:28:47.265Z,0
2017-06-30T00:30:48.685Z,0
2017-06-30T00:32:50.108Z,0
2017-06-30T00:34:51.535Z,0
2017-06-30T00:36:52.979Z,0
2017-06-30T00:38:54.491Z,0
2017-06-30T00:40:55.954Z,0
2017-06-30T00:42:57.444Z,0
2017-06-30T00:44:58.924Z,0
2017-06-30T00:47:00.428Z,0
2017-06-30T00:49:01.888Z,0
2017-06-30T00:51:03.332Z,0
2017-06-30T00:53:04.770Z,0
2017-06-30T00:55:06.196Z,0
2017-06-30T00:57:07.834Z,0
2017-06-30T00:59:09.283Z,0
2017-06-30T01:01:10.709Z,0
2017-06-30T01:03:12.135Z,0
2017-06-30T01:05:13.560Z,0
2017-06-30T01:07:15.001Z,0
2017-06-30T01:09:16.426Z,0
2017-06-30T01:11:17.856Z,0
2017-06-30T01:13:19.282Z,0
2017-06-30T01:15:20.705Z,0
2017-06-30T01:17:22.133Z,0
2017-06-30T01:19:23.559Z,0
2017-06-30T01:21:24.990Z,0
2017-06-30T01:23:26.418Z,0
2017-06-30T01:25:27.846Z,0
2017-06-30T01:27:29.275Z,0
2017-06-30T01:29:30.698Z,0
2017-06-30T01:31:32.126Z,0
2017-06-30T01:33:33.560Z,0
2017-06-30T01:35:34.985Z,0
2017-06-30T01:37:36.414Z,0
2017-06-30T01:39:37.842Z,0
2017-06-30T01:41:39.268Z,0
2017-06-30T01:43:40.695Z,0
2017-06-30T01:45:42.123Z,0
2017-06-30T01:47:43.550Z,0
2017-06-30T01:49:44.976Z,0
2017-06-30T01:51:46.405Z,0
2017-06-30T01:53:47.836Z,0
2017-06-30T01:55:49.259Z,0
2017-06-30T01:57:50.687Z,0
2017-06-30T01:59:52.114Z,0
2017-06-30T02:01:53.541Z,0
2017-06-30T02:03:54.970Z,0
2017-06-30T02:05:56.398Z,0
2017-06-30T02:07:57.889Z,0
2017-06-30T02:09:59.286Z,0
2017-06-30T02:12:00.713Z,0
2017-06-30T02:14:02.140Z,0
2017-06-30T02:16:03.568Z,0
2017-06-30T02:18:04.991Z,0
2017-06-30T02:20:06.422Z,0
2017-06-30T02:22:07.847Z,0
2017-06-30T02:24:09.276Z,0
2017-06-30T02:26:10.704Z,0
2017-06-30T02:28:12.144Z,0
2017-06-30T02:30:13.573Z,0
2017-06-30T02:32:15.001Z,0
2017-06-30T02:34:16.430Z,0
2017-06-30T02:36:17.857Z,0
2017-06-30T02:38:19.288Z,0
2017-06-30T02:40:20.719Z,0
2017-06-30T02:42:22.145Z,0
2017-06-30T02:44:23.575Z,0
2017-06-30T02:46:25.002Z,0
2017-06-30T02:48:26.430Z,0
2017-06-30T02:50:27.858Z,0
2017-06-30T02:52:29.328Z,0
2017-06-30T02:54:30.742Z,0
2017-06-30T02:56:32.168Z,0
2017-06-30T02:58:33.600Z,0
2017-06-30T03:00:35.069Z,0
2017-06-30T03:02:36.493Z,0
2017-06-30T03:04:37.920Z,0
2017-06-30T03:06:39.343Z,0
2017-06-30T03:08:40.770Z,0
2017-06-30T03:10:42.197Z,0
2017-06-30T03:12:43.625Z,0
2017-06-30T03:14:45.055Z,0
2017-06-30T03:16:46.494Z,0
2017-06-30T03:18:47.926Z,0
2017-06-30T03:20:49.358Z,0
2017-06-30T03:22:50.781Z,0
2017-06-30T03:24:52.213Z,0
2017-06-30T03:26:53.637Z,0
2017-06-30T03:28:55.082Z,0
2017-06-30T03:30:56.541Z,0
2017-06-30T03:32:57.971Z,0
2017-06-30T03:34:59.398Z,0
2017-06-30T03:37:00.826Z,0
2017-06-30T03:39:02.254Z,0
2017-06-30T03:41:03.683Z,0
2017-06-30T03:43:05.109Z,0
2017-06-30T03:45:06.533Z,0
2017-06-30T03:47:07.961Z,0
2017-06-30T03:49:09.389Z,0
2017-06-30T03:51:10.818Z,0
2017-06-30T03:53:12.245Z,0
2017-06-30T03:55:13.671Z,0
2017-06-30T03:57:15.098Z,0
2017-06-30T03:59:16.527Z,0
2017-06-30T04:01:17.958Z,5
2017-06-30T04:03:19.385Z,5
2017-06-30T04:05:20.816Z,5
2017-06-30T04:07:22.244Z,5
2017-06-30T04:09:23.673Z,5
2017-06-30T04:11:25.103Z,5
2017-06-30T04:13:26.533Z,5
2017-06-30T04:15:27.961Z,10
2017-06-30T04:17:29.392Z,10
2017-06-30T04:19:30.831Z,10
2017-06-30T04:21:32.258Z,10
2017-06-30T04:23:33.761Z,10
2017-06-30T04:25:35.186Z,10
2017-06-30T04:27:36.694Z,10
2017-06-30T04:29:38.122Z,10
2017-06-30T04:31:39.555Z,10
2017-06-30T04:33:40.986Z,10
2017-06-30T04:35:42.417Z,10
2017-06-30T04:37:43.848Z,10
2017-06-30T04:39:45.292Z,10
2017-06-30T04:41:46.834Z,10
2017-06-30T04:43:48.279Z,10
2017-06-30T04:45:49.710Z,10
2017-06-30T04:47:51.137Z,10
2017-06-30T04:49:52.567Z,15
2017-06-30T04:51:54.000Z,15
2017-06-30T04:53:55.470Z,15
2017-06-30T04:55:56.892Z,15
2017-06-30T04:57:58.325Z,15
2017-06-30T04:59:59.758Z,15
2017-06-30T05:02:01.188Z,15
2017-06-30T05:04:02.618Z,10
2017-06-30T05:06:04.045Z,10
2017-06-30T05:08:05.478Z,10
2017-06-30T05:10:06.908Z,10
2017-06-30T05:12:08.339Z,10
2017-06-30T05:14:09.763Z,10
2017-06-30T05:16:11.197Z,10
2017-06-30T05:18:12.646Z,15
2017-06-30T05:20:14.078Z,20
2017-06-30T05:22:15.532Z,20
2017-06-30T05:24:16.955Z,20
2017-06-30T05:26:18.380Z,25
2017-06-30T05:28:19.807Z,30
2017-06-30T05:30:21.248Z,30
2017-06-30T05:32:22.679Z,35
2017-06-30T05:34:24.116Z,45
2017-06-30T05:36:25.544Z,70
2017-06-30T05:38:26.976Z,75
2017-06-30T05:40:28.407Z,65
2017-06-30T05:42:29.839Z,85
2017-06-30T05:44:31.267Z,95
2017-06-30T05:46:32.700Z,105
2017-06-30T05:48:34.130Z,95
2017-06-30T05:50:35.583Z,90
2017-06-30T05:52:37.017Z,65
2017-06-30T05:54:38.519Z,60
2017-06-30T05:56:39.976Z,55
2017-06-30T05:58:41.411Z,55
2017-06-30T06:00:42.844Z,55
2017-06-30T06:02:44.276Z,55
2017-06-30T06:04:45.708Z,65
2017-06-30T06:06:47.138Z,65
2017-06-30T06:08:48.568Z,50
2017-06-30T06:10:50.006Z,40
2017-06-30T06:12:51.435Z,35
2017-06-30T06:14:52.863Z,35
2017-06-30T06:16:54.315Z,30
2017-06-30T06:18:55.746Z,30
2017-06-30T06:20:57.178Z,30
2017-06-30T06:22:58.607Z,30
2017-06-30T06:25:00.037Z,35
2017-06-30T06:27:01.471Z,35
2017-06-30T06:29:02.897Z,45
2017-06-30T06:31:04.342Z,50
2017-06-30T06:33:05.783Z,60
2017-06-30T06:35:07.259Z,70
2017-06-30T06:37:08.717Z,70
2017-06-30T06:39:10.151Z,65
2017-06-30T06:41:11.580Z,70
2017-06-30T06:43:13.012Z,75
2017-06-30T06:45:14.439Z,85
2017-06-30T06:47:15.873Z,80
2017-06-30T06:49:17.317Z,95
2017-06-30T06:51:18.747Z,90
2017-06-30T06:53:20.179Z,85
2017-06-30T06:55:21.614Z,85
2017-06-30T06:57:23.045Z,65
2017-06-30T06:59:24.479Z,55
2017-06-30T07:01:25.913Z,50
2017-06-30T07:03:27.347Z,55
2017-06-30T07:05:28.778Z,50
2017-06-30T07:07:30.214Z,55
2017-06-30T07:09:31.648Z,55
2017-06-30T07:11:33.086Z,50
2017-06-30T07:13:34.519Z,50
2017-06-30T07:15:35.951Z,45
2017-06-30T07:17:37.381Z,45
2017-06-30T07:19:38.813Z,45
2017-06-30T07:21:40.237Z,45
2017-06-30T07:23:41.673Z,45
2017-06-30T07:25:43.106Z,45
2017-06-30T07:27:45.188Z,45
2017-06-30T07:29:46.696Z,45
2017-06-30T07:31:48.130Z,40
2017-06-30T07:33:49.559Z,45
2017-06-30T07:35:50.992Z,40
2017-06-30T07:37:52.422Z,35
2017-06-30T07:39:53.862Z,35
2017-06-30T07:41:55.296Z,35
2017-06-30T07:43:56.961Z,35
2017-06-30T07:45:58.392Z,35
2017-06-30T07:47:59.825Z,35
2017-06-30T07:50:01.254Z,40
2017-06-30T07:52:02.684Z,45
2017-06-30T07:54:04.116Z,45
2017-06-30T07:56:05.549Z,40
2017-06-30T07:58:06.979Z,50
2017-06-30T08:00:08.413Z,40
2017-06-30T08:02:09.844Z,40
2017-06-30T08:04:11.280Z,35
2017-06-30T08:06:12.707Z,35
2017-06-30T08:08:14.140Z,35
2017-06-30T08:10:15.568Z,30
2017-06-30T08:12:17.004Z,35
2017-06-30T08:14:18.433Z,35
2017-06-30T08:16:19.862Z,30
2017-06-30T08:18:21.292Z,35
2017-06-30T08:20:22.727Z,35
2017-06-30T08:22:24.155Z,35
2017-06-30T08:24:25.597Z,45
2017-06-30T08:26:27.096Z,40
2017-06-30T08:28:28.565Z,40
2017-06-30T08:30:30.011Z,45
2017-06-30T08:32:31.492Z,45
2017-06-30T08:34:32.999Z,40
2017-06-30T08:36:34.454Z,35
2017-06-30T08:38:35.924Z,40
2017-06-30T08:40:37.403Z,40
2017-06-30T08:42:38.886Z,40
2017-06-30T08:44:40.394Z,40
2017-06-30T08:46:41.831Z,40
2017-06-30T08:48:43.324Z,35
2017-06-30T08:50:44.793Z,35
2017-06-30T08:52:46.245Z,40
2017-06-30T08:54:47.711Z,45
2017-06-30T08:56:49.214Z,45
2017-06-30T08:58:50.722Z,45
2017-06-30T09:00:52.161Z,50
2017-06-30T09:02:53.656Z,45
2017-06-30T09:04:55.158Z,50
2017-06-30T09:06:56.651Z,50
2017-06-30T09:08:58.157Z,55
2017-06-30T09:10:59.599Z,50
2017-06-30T09:13:01.124Z,50
2017-06-30T09:15:02.635Z,45
2017-06-30T09:17:04.085Z,40
2017-06-30T09:19:05.583Z,40
2017-06-30T09:21:07.039Z,45
2017-06-30T09:23:08.544Z,45
2017-06-30T09:25:09.969Z,50
2017-06-30T09:27:11.404Z,55
2017-06-30T09:29:12.841Z,65
2017-06-30T09:31:14.275Z,75
2017-06-30T09:33:15.704Z,75
2017-06-30T09:35:17.147Z,75
2017-06-30T09:37:18.579Z,75
2017-06-30T09:39:20.015Z,60
2017-06-30T09:41:21.450Z,55
2017-06-30T09:43:22.875Z,50
2017-06-30T09:45:24.320Z,55
2017-06-30T09:47:25.755Z,55
2017-06-30T09:49:27.192Z,70
2017-06-30T09:51:28.627Z,65
2017-06-30T09:53:30.058Z,45
2017-06-30T09:55:31.494Z,50
2017-06-30T09:57:32.927Z,60
2017-06-30T09:59:34.362Z,45
2017-06-30T10:01:35.795Z,45
2017-06-30T10:03:37.232Z,55
2017-06-30T10:05:38.688Z,65
2017-06-30T10:07:40.162Z,70
2017-06-30T10:09:41.608Z,70
2017-06-30T10:11:43.164Z,65
2017-06-30T10:13:44.617Z,55
2017-06-30T10:15:46.187Z,50
2017-06-30T10:17:47.653Z,50
2017-06-30T10:19:49.133Z,65
2017-06-30T10:21:50.600Z,75
2017-06-30T10:23:52.074Z,70
2017-06-30T10:25:53.523Z,70
2017-06-30T10:27:54.995Z,65
2017-06-30T10:29:56.475Z,60
2017-06-30T10:31:57.918Z,65
2017-06-30T10:33:59.411Z,80
2017-06-30T10:36:00.874Z,75
2017-06-30T10:38:02.374Z,65
2017-06-30T10:40:03.827Z,70
2017-06-30T10:42:05.360Z,75
2017-06-30T10:44:06.802Z,70
2017-06-30T10:46:08.286Z,65
2017-06-30T10:48:09.778Z,55
2017-06-30T10:50:11.270Z,55
2017-06-30T10:52:12.801Z,75
2017-06-30T10:54:14.321Z,80
2017-06-30T10:56:15.768Z,70
2017-06-30T10:58:17.233Z,75
2017-06-30T11:00:18.689Z,80
2017-06-30T11:02:20.219Z,85
2017-06-30T11:04:21.668Z,70
2017-06-30T11:06:23.098Z,80
2017-06-30T11:08:24.536Z,90
2017-06-30T11:10:25.965Z,95
2017-06-30T11:12:27.404Z,85
2017-06-30T11:14:28.839Z,80
2017-06-30T11:16:30.278Z,70
2017-06-30T11:18:31.713Z,95
2017-06-30T11:20:33.151Z,100
2017-06-30T11:22:34.583Z,85
2017-06-30T11:24:36.018Z,75
2017-06-30T11:26:37.456Z,70
2017-06-30T11:28:38.889Z,60
2017-06-30T11:30:40.329Z,55
2017-06-30T11:32:41.764Z,40
2017-06-30T11:34:43.205Z,45
2017-06-30T11:36:44.640Z,50
2017-06-30T11:38:46.078Z,65
2017-06-30T11:40:47.552Z,95
2017-06-30T11:42:49.063Z,105
2017-06-30T11:44:50.542Z,115
2017-06-30T11:46:52.004Z,120
2017-06-30T11:48:53.465Z,120
2017-06-30T11:50:54.923Z,100
2017-06-30T11:52:56.365Z,120
2017-06-30T11:54:57.847Z,115
2017-06-30T11:56:59.327Z,105
2017-06-30T11:59:00.876Z,75
2017-06-30T12:01:02.334Z,105
2017-06-30T12:03:04.050Z,115
2017-06-30T12:05:05.526Z,115
2017-06-30T12:07:07.010Z,105
2017-06-30T12:09:08.544Z,100
2017-06-30T12:11:10.021Z,105
2017-06-30T12:13:11.533Z,95
2017-06-30T12:15:13.032Z,95
2017-06-30T12:17:14.468Z,70
2017-06-30T12:19:15.907Z,95
2017-06-30T12:21:17.346Z,80
2017-06-30T12:23:18.782Z,80
2017-06-30T12:25:20.223Z,80
2017-06-30T12:27:21.659Z,90
2017-06-30T12:29:23.097Z,55
2017-06-30T12:31:24.538Z,60
2017-06-30T12:33:25.981Z,60
2017-06-30T12:35:27.419Z,55
2017-06-30T12:37:28.858Z,85
2017-06-30T12:39:30.297Z,75
2017-06-30T12:41:31.735Z,50
2017-06-30T12:43:33.178Z,60
2017-06-30T12:45:34.637Z,75
2017-06-30T12:47:36.141Z,60
2017-06-30T12:49:37.572Z,90
2017-06-30T12:51:39.012Z,90
2017-06-30T12:53:40.450Z,60
2017-06-30T12:55:41.890Z,55
2017-06-30T12:57:43.328Z,55
2017-06-30T12:59:44.768Z,50
2017-06-30T13:01:46.337Z,65
2017-06-30T13:03:48.943Z,85
2017-06-30T13:05:50.410Z,70
2017-06-30T13:07:52.158Z,65
2017-06-30T13:09:53.565Z,80
2017-06-30T13:11:55.098Z,80
2017-06-30T13:13:56.650Z,80
2017-06-30T13:15:58.101Z,70
2017-06-30T13:17:59.544Z,70
2017-06-30T13:20:00.993Z,65
2017-06-30T13:22:02.421Z,65
2017-06-30T13:24:03.858Z,65
2017-06-30T13:26:05.301Z,65
2017-06-30T13:28:06.735Z,65
2017-06-30T13:30:08.177Z,60
2017-06-30T13:32:09.611Z,55
2017-06-30T13:34:11.050Z,55
2017-06-30T13:36:12.499Z,55
2017-06-30T13:38:13.934Z,55
2017-06-30T13:40:15.372Z,60
2017-06-30T13:42:16.816Z,50
2017-06-30T13:44:18.257Z,50
2017-06-30T13:46:19.693Z,50
2017-06-30T13:48:21.132Z,50
2017-06-30T13:50:22.569Z,55
2017-06-30T13:52:24.006Z,60
2017-06-30T13:54:25.446Z,60
2017-06-30T13:56:26.912Z,60
2017-06-30T13:58:28.352Z,60
2017-06-30T14:00:29.782Z,60
2017-06-30T14:02:31.225Z,65
2017-06-30T14:04:32.661Z,50
2017-06-30T14:06:34.095Z,55
2017-06-30T14:08:35.551Z,50
2017-06-30T14:10:36.990Z,50
2017-06-30T14:12:38.428Z,50
2017-06-30T14:14:39.867Z,50
2017-06-30T14:16:41.313Z,50
2017-06-30T14:18:42.750Z,55
2017-06-30T14:20:44.226Z,60
2017-06-30T14:22:45.670Z,65
2017-06-30T14:24:47.106Z,65
2017-06-30T14:26:48.545Z,65
2017-06-30T14:28:49.986Z,65
2017-06-30T14:30:51.422Z,60
2017-06-30T14:32:52.855Z,60
2017-06-30T14:34:54.293Z,60
2017-06-30T14:36:55.733Z,60
2017-06-30T14:38:57.175Z,60
2017-06-30T14:40:58.612Z,60
2017-06-30T14:43:00.051Z,60
2017-06-30T14:45:01.488Z,60
2017-06-30T14:47:02.934Z,60
2017-06-30T14:49:04.371Z,60
2017-06-30T14:51:05.807Z,55
2017-06-30T14:53:07.249Z,55
2017-06-30T14:55:08.687Z,55
2017-06-30T14:57:10.139Z,55
2017-06-30T14:59:11.579Z,50
2017-06-30T15:01:13.012Z,55
2017-06-30T15:03:14.446Z,55
2017-06-30T15:05:15.889Z,55
2017-06-30T15:07:17.338Z,50
2017-06-30T15:09:18.783Z,50
2017-06-30T15:11:20.260Z,55
2017-06-30T15:13:21.704Z,50
2017-06-30T15:15:23.138Z,50
2017-06-30T15:17:24.574Z,55
2017-06-30T15:19:26.012Z,50
2017-06-30T15:21:27.447Z,45
2017-06-30T15:23:28.888Z,45
2017-06-30T15:25:30.324Z,45
2017-06-30T15:27:31.764Z,45
2017-06-30T15:29:33.199Z,45
2017-06-30T15:31:34.643Z,50
2017-06-30T15:33:36.079Z,50
2017-06-30T15:35:37.513Z,50
2017-06-30T15:37:38.953Z,45
2017-06-30T15:39:40.388Z,40
2017-06-30T15:41:41.822Z,40
2017-06-30T15:43:43.275Z,35
2017-06-30T15:45:44.712Z,25
2017-06-30T15:47:46.148Z,20
2017-06-30T15:49:47.593Z,15
2017-06-30T15:51:49.059Z,10
2017-06-30T15:53:50.540Z,5
2017-06-30T15:55:52.007Z,5
2017-06-30T15:57:53.525Z,0
2017-06-30T15:59:55.003Z,0
2017-06-30T16:01:56.469Z,0
2017-06-30T16:03:58.011Z,0
2017-06-30T16:05:59.496Z,0
2017-06-30T16:08:00.961Z,0
2017-06-30T16:10:02.397Z,0
2017-06-30T16:12:03.841Z,0
2017-06-30T16:14:05.353Z,5
2017-06-30T16:16:06.835Z,5
2017-06-30T16:18:08.333Z,5
2017-06-30T16:20:10.023Z,5
2017-06-30T16:22:11.725Z,10
2017-06-30T16:24:13.612Z,10
2017-06-30T16:26:15.107Z,10
2017-06-30T16:28:16.597Z,10
2017-06-30T16:30:18.086Z,10
2017-06-30T16:32:19.632Z,15
2017-06-30T16:34:21.170Z,10
2017-06-30T16:36:22.603Z,10
2017-06-30T16:38:24.147Z,10
2017-06-30T16:40:25.588Z,10
2017-06-30T16:42:27.077Z,10
2017-06-30T16:44:28.629Z,10
2017-06-30T16:46:30.147Z,10
2017-06-30T16:48:31.831Z,10
2017-06-30T16:50:33.561Z,5
2017-06-30T16:52:35.013Z,5
2017-06-30T16:54:36.540Z,5
2017-06-30T16:56:38.280Z,5
2017-06-30T16:58:40.047Z,10
2017-06-30T17:00:41.732Z,10
2017-06-30T17:02:43.892Z,10
2017-06-30T17:04:45.391Z,10
2017-06-30T17:06:46.877Z,10
2017-06-30T17:08:48.349Z,10
2017-06-30T17:10:49.862Z,10
2017-06-30T17:12:51.508Z,10
2017-06-30T17:14:52.988Z,5
2017-06-30T17:16:54.484Z,5
2017-06-30T17:18:55.951Z,5
2017-06-30T17:20:57.385Z,5
2017-06-30T17:22:58.886Z,5
2017-06-30T17:25:00.315Z,5
2017-06-30T17:27:01.752Z,5
2017-06-30T17:29:03.180Z,5
2017-06-30T17:31:04.614Z,5
2017-06-30T17:33:06.044Z,5
2017-06-30T17:35:07.471Z,5
2017-06-30T17:37:08.911Z,5
2017-06-30T17:39:10.343Z,5
2017-06-30T17:41:11.773Z,5
2017-06-30T17:43:13.214Z,5
2017-06-30T17:45:14.653Z,5
2017-06-30T17:47:16.086Z,5
2017-06-30T17:49:17.520Z,5
2017-06-30T17:51:18.957Z,5
2017-06-30T17:53:20.394Z,5
2017-06-30T17:55:21.824Z,5
2017-06-30T17:57:23.258Z,5
2017-06-30T17:59:24.691Z,5
2017-06-30T18:01:26.125Z,5
2017-06-30T18:03:27.542Z,5
2017-06-30T18:05:29.013Z,5
2017-06-30T18:07:30.445Z,5
2017-06-30T18:09:31.879Z,5
2017-06-30T18:11:33.311Z,5
2017-06-30T18:13:34.743Z,5
2017-06-30T18:15:36.176Z,5
2017-06-30T18:17:37.667Z,5
2017-06-30T18:19:39.100Z,5
2017-06-30T18:21:40.536Z,5
2017-06-30T18:23:42.013Z,5
2017-06-30T18:25:43.469Z,0
2017-06-30T18:27:44.901Z,0
2017-06-30T18:29:46.329Z,0
2017-06-30T18:31:47.761Z,0
2017-06-30T18:33:49.193Z,0
2017-06-30T18:35:50.622Z,0
2017-06-30T18:37:52.055Z,0
2017-06-30T18:39:53.487Z,0
2017-06-30T18:41:54.925Z,0
2017-06-30T18:43:56.357Z,0
2017-06-30T18:45:57.786Z,0
2017-06-30T18:47:59.219Z,0
2017-06-30T18:50:00.653Z,0
2017-06-30T18:52:02.083Z,0
2017-06-30T18:54:03.513Z,0
2017-06-30T18:56:04.947Z,0
2017-06-30T18:58:06.377Z,0
2017-06-30T19:00:07.804Z,0
2017-06-30T19:02:09.240Z,0
2017-06-30T19:04:10.719Z,0
2017-06-30T19:06:12.135Z,0
2017-06-30T19:08:13.569Z,0
2017-06-30T19:10:15.005Z,0
2017-06-30T19:12:16.434Z,0
2017-06-30T19:14:17.870Z,0
2017-06-30T19:16:19.298Z,0
2017-06-30T19:18:20.727Z,0
2017-06-30T19:20:22.157Z,0
2017-06-30T19:22:23.593Z,0
2017-06-30T19:24:25.029Z,0
2017-06-30T19:26:26.460Z,0
2017-06-30T19:28:27.892Z,0
2017-06-30T19:30:29.325Z,0
2017-06-30T19:32:30.759Z,0
2017-06-30T19:34:32.186Z,0
2017-06-30T19:36:33.622Z,0
2017-06-30T19:38:35.055Z,0
2017-06-30T19:40:36.518Z,0
2017-06-30T19:42:37.946Z,0
2017-06-30T19:44:39.385Z,0
2017-06-30T19:46:40.811Z,0
2017-06-30T19:48:42.240Z,0
2017-06-30T19:50:43.674Z,0
2017-06-30T19:52:45.131Z,0
2017-06-30T19:54:46.541Z,0
2017-06-30T19:56:48.112Z,0
2017-06-30T19:58:49.587Z,0
2017-06-30T20:00:51.034Z,0
2017-06-30T20:02:52.463Z,0
2017-06-30T20:04:53.888Z,0
2017-06-30T20:06:55.322Z,0
2017-06-30T20:08:56.753Z,0
2017-06-30T20:10:58.197Z,0
2017-06-30T20:12:59.624Z,0
2017-06-30T20:15:01.053Z,0
2017-06-30T20:17:02.483Z,0
2017-06-30T20:19:03.914Z,0
2017-06-30T20:21:05.342Z,0
2017-06-30T20:23:06.803Z,0
2017-06-30T20:25:08.238Z,0
2017-06-30T20:27:09.663Z,0
2017-06-30T20:29:11.089Z,0
2017-06-30T20:31:13.058Z,0
2017-06-30T20:33:14.490Z,0
2017-06-30T20:35:15.922Z,0
2017-06-30T20:37:17.357Z,0
2017-06-30T20:39:18.783Z,0
2017-06-30T20:41:20.211Z,0
2017-06-30T20:43:21.645Z,0
2017-06-30T20:45:23.085Z,0
2017-06-30T20:47:24.518Z,0
2017-06-30T20:49:25.950Z,0
2017-06-30T20:51:27.386Z,0
2017-06-30T20:53:28.824Z,0
2017-06-30T20:55:30.356Z,0
2017-06-30T20:57:31.777Z,0
2017-06-30T20:59:33.218Z,0
2017-06-30T21:01:34.625Z,0
2017-06-30T21:03:36.075Z,0
2017-06-30T21:05:37.504Z,0
2017-06-30T21:07:38.941Z,0
2017-06-30T21:09:40.458Z,0
2017-06-30T21:11:41.966Z,0
2017-06-30T21:13:43.401Z,0
2017-06-30T21:15:45.039Z,0
2017-06-30T21:17:46.469Z,0
2017-06-30T21:19:47.902Z,0
2017-06-30T21:21:49.379Z,0
2017-06-30T21:23:50.808Z,0
2017-06-30T21:25:52.278Z,0
2017-06-30T21:27:53.707Z,0
2017-06-30T21:29:55.144Z,0
2017-06-30T21:31:57.653Z,0
2017-06-30T21:33:58.920Z,0
2017-06-30T21:36:00.359Z,0
2017-06-30T21:38:01.830Z,0
2017-06-30T21:40:03.261Z,0
2017-06-30T21:42:04.705Z,0
2017-06-30T21:44:06.126Z,0
2017-06-30T21:46:07.560Z,0
2017-06-30T21:48:08.990Z,0
2017-06-30T21:50:10.419Z,0
2017-06-30T21:52:11.854Z,0
2017-06-30T21:54:13.284Z,0
2017-06-30T21:56:14.725Z,0
2017-06-30T21:58:16.155Z,0
2017-06-30T22:00:17.611Z,0
2017-06-30T22:02:19.070Z,0
2017-06-30T22:04:20.524Z,0
2017-06-30T22:06:22.062Z,0
2017-06-30T22:08:23.496Z,0
2017-06-30T22:10:24.936Z,0
2017-06-30T22:12:26.421Z,0
2017-06-30T22:14:27.932Z,0
2017-06-30T22:16:29.521Z,0
2017-06-30T22:18:30.978Z,0
2017-06-30T22:20:32.421Z,0
2017-06-30T22:22:33.854Z,0
2017-06-30T22:24:35.292Z,0
2017-06-30T22:26:36.778Z,0
2017-06-30T22:28:38.207Z,0
2017-06-30T22:30:39.642Z,0
2017-06-30T22:32:41.070Z,0
2017-06-30T22:34:42.500Z,0
2017-06-30T22:36:43.933Z,0
2017-06-30T22:38:45.366Z,0
2017-06-30T22:40:46.793Z,0
2017-06-30T22:42:48.219Z,0
2017-06-30T22:44:49.650Z,0
2017-06-30T22:46:51.075Z,0
2017-06-30T22:48:52.508Z,0
2017-06-30T22:50:53.935Z,0
2017-06-30T22:52:55.376Z,0
2017-06-30T22:54:56.795Z,0
2017-06-30T22:56:58.231Z,0
2017-06-30T22:58:59.967Z,0
2017-06-30T23:01:01.488Z,0
2017-06-30T23:03:03.119Z,0
2017-06-30T23:05:04.956Z,0
2017-06-30T23:07:06.422Z,0
2017-06-30T23:09:07.846Z,0
2017-06-30T23:11:09.298Z,0
2017-06-30T23:13:10.727Z,0
2017-06-30T23:15:12.153Z,0
2017-06-30T23:17:13.590Z,0
2017-06-30T23:19:15.025Z,0
2017-06-30T23:21:16.455Z,0
2017-06-30T23:23:17.885Z,0
2017-06-30T23:25:19.319Z,0
2017-06-30T23:27:20.749Z,0
2017-06-30T23:29:22.184Z,0
2017-06-30T23:31:23.606Z,0
2017-06-30T23:33:25.036Z,0
2017-06-30T23:35:26.473Z,0
2017-06-30T23:37:27.903Z,0
2017-06-30T23:39:29.328Z,0
2017-06-30T23:41:30.762Z,0
2017-06-30T23:43:32.193Z,0
2017-06-30T23:45:33.620Z,0
2017-06-30T23:47:35.048Z,0
2017-06-30T23:49:36.483Z,0
2017-06-30T23:51:37.901Z,0
2017-06-30T23:53:39.332Z,0
2017-06-30T23:55:40.764Z,0
2017-06-30T23:57:42.199Z,0
2017-06-30T23:59:43.628Z,0
